Time;durP1;ratioP1;P1;durP2;ratioP2;P2;SDS_P1;SDS_P2;PMS_P1;PMS_P2;Temp;Humidity;BMP_temperature;BMP_pressure;BME280_temperature;BME280_humidity;BME280_pressure;Samples;Min_cycle;Max_cycle;Signal;HPM_P1;HPM_P2
2021/07/22 00:00:55;;;;;;;6.70;4.57;;;;;;;;;;5094991;28;20078;-59
2021/07/22 00:03:21;;;;;;;7.22;5.00;;;;;;;;;;5094996;28;20103;-59
2021/07/22 00:05:47;;;;;;;4.97;4.00;;;;;;;;;;5095129;28;20139;-59
2021/07/22 00:08:13;;;;;;;5.25;4.00;;;;;;;;;;5095188;28;20128;-59
2021/07/22 00:10:40;;;;;;;9.57;4.63;;;;;;;;;;5093708;28;20055;-59
2021/07/22 00:13:06;;;;;;;7.53;3.80;;;;;;;;;;5095176;28;20034;-59
2021/07/22 00:15:32;;;;;;;5.60;4.43;;;;;;;;;;5094753;28;20069;-59
2021/07/22 00:17:58;;;;;;;5.93;4.15;;;;;;;;;;5094802;28;20392;-59
2021/07/22 00:20:24;;;;;;;8.95;4.72;;;;;;;;;;5094757;28;20024;-59
2021/07/22 00:22:51;;;;;;;5.03;4.22;;;;;;;;;;5095480;28;20039;-59
2021/07/22 00:25:16;;;;;;;7.30;4.45;;;;;;;;;;5094932;28;20059;-59
2021/07/22 00:27:43;;;;;;;8.65;4.63;;;;;;;;;;5095123;28;20468;-59
2021/07/22 00:30:12;;;;;;;6.05;4.78;;;;;;;;;;5095062;28;20016;-59
2021/07/22 00:32:38;;;;;;;5.75;4.15;;;;;;;;;;5095060;28;20408;-59
2021/07/22 00:35:04;;;;;;;6.50;4.03;;;;;;;;;;5094518;28;20024;-59
2021/07/22 00:37:30;;;;;;;7.13;4.40;;;;;;;;;;5094778;28;20030;-59
2021/07/22 00:39:56;;;;;;;6.05;4.75;;;;;;;;;;5094788;28;20115;-59
2021/07/22 00:42:22;;;;;;;7.18;4.78;;;;;;;;;;5094653;28;20035;-59
2021/07/22 00:44:48;;;;;;;6.70;5.00;;;;;;;;;;5094288;28;20024;-59
2021/07/22 00:47:14;;;;;;;6.15;3.75;;;;;;;;;;5094221;28;20458;-59
2021/07/22 00:49:40;;;;;;;5.72;4.55;;;;;;;;;;5094213;28;20468;-59
2021/07/22 00:52:06;;;;;;;5.50;3.97;;;;;;;;;;5094817;28;20028;-58
2021/07/22 00:54:32;;;;;;;5.82;4.10;;;;;;;;;;5093762;28;20465;-59
2021/07/22 00:56:58;;;;;;;6.47;4.28;;;;;;;;;;5094066;28;20028;-59
2021/07/22 00:59:24;;;;;;;8.05;4.53;;;;;;;;;;5094209;28;20026;-59
2021/07/22 01:01:50;;;;;;;8.23;4.32;;;;;;;;;;5094276;28;20020;-59
2021/07/22 01:04:18;;;;;;;5.47;4.22;;;;;;;;;;5093997;28;20024;-59
2021/07/22 01:06:44;;;;;;;5.07;4.07;;;;;;;;;;5093913;28;20028;-59
2021/07/22 01:09:10;;;;;;;6.18;4.45;;;;;;;;;;5093478;28;20016;-59
2021/07/22 01:11:36;;;;;;;7.38;4.35;;;;;;;;;;5094070;28;20044;-59
2021/07/22 01:14:02;;;;;;;7.18;5.10;;;;;;;;;;5092412;28;20437;-59
2021/07/22 01:16:28;;;;;;;7.75;4.97;;;;;;;;;;5093741;28;20035;-59
2021/07/22 01:18:54;;;;;;;7.75;4.75;;;;;;;;;;5094146;28;20284;-59
2021/07/22 01:21:22;;;;;;;9.07;4.32;;;;;;;;;;5094083;28;20024;-59
2021/07/22 01:23:48;;;;;;;6.72;4.53;;;;;;;;;;5093831;28;20481;-59
2021/07/22 01:26:14;;;;;;;6.03;4.50;;;;;;;;;;5093521;28;20035;-59
2021/07/22 01:28:40;;;;;;;8.25;3.90;;;;;;;;;;5093443;28;20022;-59
2021/07/22 01:31:06;;;;;;;6.47;4.38;;;;;;;;;;5093530;28;20428;-59
2021/07/22 01:33:32;;;;;;;5.97;4.55;;;;;;;;;;5093373;28;20097;-58
2021/07/22 01:35:58;;;;;;;6.28;4.65;;;;;;;;;;5093765;28;20024;-59
2021/07/22 01:38:24;;;;;;;6.55;4.80;;;;;;;;;;5093396;28;20082;-59
2021/07/22 01:40:50;;;;;;;6.03;4.45;;;;;;;;;;5091972;28;20016;-59
2021/07/22 01:43:16;;;;;;;6.75;4.18;;;;;;;;;;5093717;28;20039;-59
2021/07/22 01:45:42;;;;;;;6.40;4.25;;;;;;;;;;5093593;28;20094;-59
2021/07/22 01:48:07;;;;;;;5.10;4.60;;;;;;;;;;5093769;28;20020;-59
2021/07/22 01:50:34;;;;;;;6.38;4.80;;;;;;;;;;5094197;28;20020;-59
2021/07/22 01:53:01;;;;;;;6.45;5.18;;;;;;;;;;5093669;28;20024;-58
2021/07/22 01:55:27;;;;;;;6.43;5.25;;;;;;;;;;5093640;28;20028;-58
2021/07/22 01:57:55;;;;;;;5.90;4.63;;;;;;;;;;5093794;28;20111;-58
2021/07/22 02:00:21;;;;;;;5.90;4.85;;;;;;;;;;5092994;28;20024;-58
2021/07/22 02:02:47;;;;;;;7.82;5.85;;;;;;;;;;5093663;28;20036;-59
2021/07/22 02:05:13;;;;;;;6.97;4.32;;;;;;;;;;5092249;28;20046;-58
2021/07/22 02:07:39;;;;;;;6.43;4.82;;;;;;;;;;5093049;28;20055;-58
2021/07/22 02:10:06;;;;;;;5.65;4.70;;;;;;;;;;5092566;28;20042;-59
2021/07/22 02:12:31;;;;;;;5.72;4.45;;;;;;;;;;5093582;28;20048;-58
2021/07/22 02:14:57;;;;;;;7.40;5.00;;;;;;;;;;5093027;28;20066;-58
2021/07/22 02:17:23;;;;;;;8.00;5.50;;;;;;;;;;5092977;28;20060;-58
2021/07/22 02:19:49;;;;;;;7.20;4.97;;;;;;;;;;5092620;28;20351;-58
2021/07/22 02:22:16;;;;;;;6.50;4.88;;;;;;;;;;5092916;28;20047;-58
2021/07/22 02:24:42;;;;;;;8.35;5.60;;;;;;;;;;5092829;28;20032;-58
2021/07/22 02:27:08;;;;;;;9.52;4.93;;;;;;;;;;5093135;28;20157;-58
2021/07/22 02:29:34;;;;;;;7.40;5.32;;;;;;;;;;5092878;28;20024;-58
2021/07/22 02:32:01;;;;;;;9.05;6.25;;;;;;;;;;5093073;28;20020;-58
2021/07/22 02:34:27;;;;;;;6.95;4.95;;;;;;;;;;5096243;28;20035;-58
2021/07/22 02:36:53;;;;;;;10.38;6.43;;;;;;;;;;5096812;28;20020;-58
2021/07/22 02:39:19;;;;;;;7.75;6.20;;;;;;;;;;5097079;28;20031;-58
2021/07/22 02:41:45;;;;;;;7.82;5.63;;;;;;;;;;5097211;28;20027;-58
2021/07/22 02:44:11;;;;;;;6.88;5.15;;;;;;;;;;5096652;28;20020;-58
2021/07/22 02:46:37;;;;;;;6.28;5.43;;;;;;;;;;5096637;28;20020;-58
2021/07/22 02:49:03;;;;;;;7.32;5.47;;;;;;;;;;5096602;28;20421;-58
2021/07/22 02:51:29;;;;;;;7.30;5.30;;;;;;;;;;5096281;28;20449;-58
2021/07/22 02:53:55;;;;;;;5.68;5.07;;;;;;;;;;5096861;28;20024;-58
2021/07/22 02:56:21;;;;;;;7.45;5.40;;;;;;;;;;5096841;28;20169;-58
2021/07/22 02:58:47;;;;;;;7.70;5.35;;;;;;;;;;5097045;28;20046;-58
2021/07/22 03:01:13;;;;;;;7.82;6.30;;;;;;;;;;5096666;28;20107;-59
2021/07/22 03:03:39;;;;;;;10.75;5.72;;;;;;;;;;5096694;28;20024;-59
2021/07/22 03:06:05;;;;;;;8.95;5.75;;;;;;;;;;5096127;28;20091;-59
2021/07/22 03:08:31;;;;;;;7.07;4.90;;;;;;;;;;5096450;28;20105;-59
2021/07/22 03:10:58;;;;;;;6.50;5.75;;;;;;;;;;5096122;28;20185;-59
2021/07/22 03:13:27;;;;;;;5.97;4.53;;;;;;;;;;5096522;28;20040;-59
2021/07/22 03:15:53;;;;;;;6.57;5.20;;;;;;;;;;5095803;28;20085;-59
2021/07/22 03:18:19;;;;;;;13.43;5.47;;;;;;;;;;5094837;28;20028;-59
2021/07/22 03:20:48;;;;;;;8.15;5.63;;;;;;;;;;5096154;28;20031;-59
2021/07/22 03:23:16;;;;;;;8.75;5.28;;;;;;;;;;5095959;28;20032;-59
2021/07/22 03:25:42;;;;;;;8.45;6.30;;;;;;;;;;5095786;28;20103;-59
2021/07/22 03:28:08;;;;;;;11.38;5.57;;;;;;;;;;5095758;28;20218;-59
2021/07/22 03:30:34;;;;;;;7.60;5.90;;;;;;;;;;5096302;28;20016;-59
2021/07/22 03:33:01;;;;;;;7.85;5.80;;;;;;;;;;5095980;28;20030;-59
2021/07/22 03:35:27;;;;;;;9.25;5.50;;;;;;;;;;5095797;28;20032;-59
2021/07/22 03:37:53;;;;;;;6.80;5.10;;;;;;;;;;5095788;28;20031;-59
2021/07/22 03:40:19;;;;;;;8.90;6.18;;;;;;;;;;5096168;28;20016;-58
2021/07/22 03:42:45;;;;;;;8.98;6.35;;;;;;;;;;5095978;28;20024;-59
2021/07/22 03:45:12;;;;;;;8.82;5.18;;;;;;;;;;5094510;28;20031;-59
2021/07/22 03:47:38;;;;;;;10.02;5.65;;;;;;;;;;5096142;28;20024;-59
2021/07/22 03:50:04;;;;;;;6.78;5.47;;;;;;;;;;5095347;28;20027;-59
2021/07/22 03:52:30;;;;;;;7.75;6.07;;;;;;;;;;5096273;28;20028;-59
2021/07/22 03:54:57;;;;;;;7.47;5.65;;;;;;;;;;5095553;28;20047;-59
2021/07/22 03:57:23;;;;;;;8.68;5.63;;;;;;;;;;5095434;28;20024;-59
2021/07/22 03:59:49;;;;;;;6.38;5.60;;;;;;;;;;5095662;28;20030;-59
2021/07/22 04:02:18;;;;;;;9.90;6.63;;;;;;;;;;5095944;28;20107;-59
2021/07/22 04:04:44;;;;;;;6.30;5.57;;;;;;;;;;5095756;28;20111;-59
2021/07/22 04:07:10;;;;;;;7.15;6.30;;;;;;;;;;5095332;28;20430;-59
2021/07/22 04:09:36;;;;;;;10.73;7.35;;;;;;;;;;5095037;28;20027;-59
2021/07/22 04:12:02;;;;;;;7.90;5.82;;;;;;;;;;5095084;28;20420;-59
2021/07/22 04:14:28;;;;;;;8.05;6.28;;;;;;;;;;5094812;28;20463;-59
2021/07/22 04:16:53;;;;;;;8.70;6.85;;;;;;;;;;5095738;28;20059;-59
2021/07/22 04:19:19;;;;;;;7.45;5.90;;;;;;;;;;5095184;28;20522;-59
2021/07/22 04:21:46;;;;;;;8.63;6.70;;;;;;;;;;5095814;28;20020;-59
2021/07/22 04:24:12;;;;;;;6.65;5.50;;;;;;;;;;5095393;28;20067;-59
2021/07/22 04:26:38;;;;;;;8.63;6.38;;;;;;;;;;5094740;28;20043;-59
2021/07/22 04:29:04;;;;;;;11.18;7.28;;;;;;;;;;5095046;28;20028;-59
2021/07/22 04:31:30;;;;;;;7.47;6.43;;;;;;;;;;5095514;28;20024;-59
2021/07/22 04:33:56;;;;;;;8.75;6.40;;;;;;;;;;5095176;28;20406;-59
2021/07/22 04:36:22;;;;;;;7.80;5.97;;;;;;;;;;5094796;28;20118;-59
2021/07/22 04:38:49;;;;;;;9.75;7.07;;;;;;;;;;5095315;28;20124;-59
2021/07/22 04:41:15;;;;;;;10.07;7.15;;;;;;;;;;5095349;28;20365;-59
2021/07/22 04:43:41;;;;;;;11.07;8.00;;;;;;;;;;5094933;28;20028;-59
2021/07/22 04:46:07;;;;;;;7.75;6.95;;;;;;;;;;5094698;28;20118;-59
2021/07/22 04:48:33;;;;;;;7.30;5.95;;;;;;;;;;5094563;28;20016;-59
2021/07/22 04:51:05;;;;;;;8.38;7.07;;;;;;;;;;5094647;28;20024;-59
2021/07/22 04:53:31;;;;;;;9.07;5.75;;;;;;;;;;5094606;28;20035;-59
2021/07/22 04:55:57;;;;;;;10.43;6.97;;;;;;;;;;5093618;28;20024;-59
2021/07/22 04:58:23;;;;;;;8.80;6.63;;;;;;;;;;5094752;28;20016;-59
2021/07/22 05:00:53;;;;;;;8.68;6.90;;;;;;;;;;5093454;28;20060;-59
2021/07/22 05:03:19;;;;;;;8.20;5.70;;;;;;;;;;5095545;28;20066;-59
2021/07/22 05:05:45;;;;;;;7.18;5.85;;;;;;;;;;5094376;28;20055;-59
2021/07/22 05:08:11;;;;;;;9.25;7.38;;;;;;;;;;5094290;28;20020;-59
2021/07/22 05:10:37;;;;;;;8.43;7.55;;;;;;;;;;5094698;28;20016;-59
2021/07/22 05:13:04;;;;;;;12.38;7.65;;;;;;;;;;5094516;28;20045;-59
2021/07/22 05:15:31;;;;;;;9.18;8.27;;;;;;;;;;5094435;28;20058;-59
2021/07/22 05:17:57;;;;;;;10.63;7.22;;;;;;;;;;5094495;28;20073;-59
2021/07/22 05:20:23;;;;;;;9.45;6.00;;;;;;;;;;5094918;28;20016;-59
2021/07/22 05:22:49;;;;;;;8.77;6.70;;;;;;;;;;5094751;28;20109;-59
2021/07/22 05:25:15;;;;;;;15.20;9.57;;;;;;;;;;5094578;28;20024;-59
2021/07/22 05:27:41;;;;;;;10.90;9.15;;;;;;;;;;5094306;28;20027;-59
2021/07/22 05:30:07;;;;;;;9.90;8.05;;;;;;;;;;5094229;28;20020;-59
2021/07/22 05:32:33;;;;;;;8.52;7.13;;;;;;;;;;5094580;28;20107;-59
2021/07/22 05:35:02;;;;;;;8.82;7.50;;;;;;;;;;5094140;28;20533;-59
2021/07/22 05:37:30;;;;;;;12.77;9.65;;;;;;;;;;5094230;28;20438;-59
2021/07/22 05:39:56;;;;;;;10.43;9.35;;;;;;;;;;5094169;28;20024;-59
2021/07/22 05:42:23;;;;;;;9.32;8.40;;;;;;;;;;5094611;28;20023;-59
2021/07/22 05:44:49;;;;;;;16.23;10.52;;;;;;;;;;5094298;28;20062;-59
2021/07/22 05:47:14;;;;;;;11.82;8.65;;;;;;;;;;5094376;28;20027;-59
2021/07/22 05:49:40;;;;;;;11.38;10.25;;;;;;;;;;5094315;28;20020;-59
2021/07/22 05:52:07;;;;;;;11.57;9.30;;;;;;;;;;5094716;28;20027;-59
2021/07/22 05:54:32;;;;;;;12.45;8.93;;;;;;;;;;5093893;28;20397;-59
2021/07/22 05:56:58;;;;;;;12.57;9.25;;;;;;;;;;5093900;28;20157;-59
2021/07/22 05:59:24;;;;;;;12.50;8.05;;;;;;;;;;5093921;28;20314;-59
2021/07/22 06:01:50;;;;;;;14.50;10.27;;;;;;;;;;5094149;28;20024;-59
2021/07/22 06:04:16;;;;;;;10.48;7.80;;;;;;;;;;5093357;28;20031;-59
2021/07/22 06:06:43;;;;;;;9.10;7.97;;;;;;;;;;5093989;28;20100;-59
2021/07/22 06:09:09;;;;;;;13.73;9.90;;;;;;;;;;5097221;28;20170;-59
2021/07/22 06:11:35;;;;;;;10.80;8.18;;;;;;;;;;5097567;28;20080;-59
2021/07/22 06:14:01;;;;;;;11.43;8.20;;;;;;;;;;5098208;28;20085;-59
2021/07/22 06:16:27;;;;;;;10.60;8.25;;;;;;;;;;5096617;28;20028;-59
2021/07/22 06:18:53;;;;;;;13.65;9.23;;;;;;;;;;5098032;28;20023;-59
2021/07/22 06:21:19;;;;;;;11.98;8.68;;;;;;;;;;5097054;28;20489;-59
2021/07/22 06:23:46;;;;;;;9.68;7.25;;;;;;;;;;5097205;28;20103;-59
2021/07/22 06:26:12;;;;;;;11.10;8.15;;;;;;;;;;5097622;28;20452;-59
2021/07/22 06:28:38;;;;;;;12.50;9.57;;;;;;;;;;5095776;28;20078;-59
2021/07/22 06:31:04;;;;;;;10.77;8.32;;;;;;;;;;5097446;28;20038;-59
2021/07/22 06:33:30;;;;;;;9.65;8.05;;;;;;;;;;5097106;28;20133;-59
2021/07/22 06:35:56;;;;;;;9.80;8.60;;;;;;;;;;5097256;28;20148;-59
2021/07/22 06:38:22;;;;;;;12.77;8.60;;;;;;;;;;5097364;28;20518;-59
2021/07/22 06:40:50;;;;;;;8.98;7.05;;;;;;;;;;5097216;28;20028;-59
2021/07/22 06:43:19;;;;;;;10.82;7.20;;;;;;;;;;5096879;28;20113;-59
2021/07/22 06:45:45;;;;;;;12.30;7.50;;;;;;;;;;5096794;28;20020;-59
2021/07/22 06:48:11;;;;;;;8.23;6.80;;;;;;;;;;5096840;28;20033;-59
2021/07/22 06:50:37;;;;;;;9.75;7.18;;;;;;;;;;5096765;28;20020;-59
2021/07/22 06:53:03;;;;;;;8.77;6.40;;;;;;;;;;5097440;28;20024;-59
2021/07/22 06:55:32;;;;;;;8.55;6.63;;;;;;;;;;5096522;28;20115;-59
2021/07/22 06:58:05;;;;;;;13.18;7.07;;;;;;;;;;5096541;28;20081;-59
2021/07/22 07:00:31;;;;;;;10.43;7.15;;;;;;;;;;5096134;28;20449;-59
2021/07/22 07:02:57;;;;;;;7.68;6.75;;;;;;;;;;5097307;28;20111;-59
2021/07/22 07:05:23;;;;;;;10.00;6.28;;;;;;;;;;5096572;28;20074;-59
2021/07/22 07:07:49;;;;;;;9.40;6.38;;;;;;;;;;5095474;28;20481;-59
2021/07/22 07:10:15;;;;;;;10.10;7.13;;;;;;;;;;5096594;28;20077;-59
2021/07/22 07:12:41;;;;;;;9.98;7.72;;;;;;;;;;5097422;28;20052;-59
2021/07/22 07:15:08;;;;;;;10.95;6.75;;;;;;;;;;5096485;28;20515;-59
2021/07/22 07:17:33;;;;;;;10.68;8.23;;;;;;;;;;5096996;28;20020;-59
2021/07/22 07:19:59;;;;;;;9.73;7.30;;;;;;;;;;5096032;28;20343;-59
2021/07/22 07:22:25;;;;;;;11.60;7.53;;;;;;;;;;5096333;28;20024;-59
2021/07/22 07:24:51;;;;;;;9.43;6.57;;;;;;;;;;5095424;28;20031;-59
2021/07/22 07:27:17;;;;;;;8.10;6.97;;;;;;;;;;5094850;28;20430;-59
2021/07/22 07:29:43;;;;;;;7.53;6.53;;;;;;;;;;5096325;28;20023;-59
2021/07/22 07:32:09;;;;;;;7.57;6.63;;;;;;;;;;5096373;28;20416;-59
2021/07/22 07:34:36;;;;;;;12.25;7.30;;;;;;;;;;5095485;28;20035;-59
2021/07/22 07:37:02;;;;;;;9.80;7.18;;;;;;;;;;5095970;28;20028;-59
2021/07/22 07:39:28;;;;;;;7.68;6.70;;;;;;;;;;5096107;28;20023;-59
2021/07/22 07:41:54;;;;;;;7.85;6.28;;;;;;;;;;5095838;28;20034;-59
2021/07/22 07:44:20;;;;;;;6.60;5.95;;;;;;;;;;5096018;28;20461;-59
2021/07/22 07:46:46;;;;;;;9.02;6.05;;;;;;;;;;5095802;28;20028;-59
2021/07/22 07:49:12;;;;;;;9.93;6.20;;;;;;;;;;5095633;28;20099;-59
2021/07/22 07:51:38;;;;;;;7.78;6.03;;;;;;;;;;5095662;28;20032;-59
2021/07/22 07:54:04;;;;;;;7.57;6.47;;;;;;;;;;5094140;28;20111;-59
2021/07/22 07:56:30;;;;;;;8.77;6.63;;;;;;;;;;5095998;28;20024;-59
2021/07/22 07:58:56;;;;;;;7.82;5.55;;;;;;;;;;5095680;28;20518;-59
2021/07/22 08:01:25;;;;;;;7.32;5.93;;;;;;;;;;5095337;28;20017;-59
2021/07/22 08:03:51;;;;;;;10.00;6.60;;;;;;;;;;5095316;28;20086;-59
2021/07/22 08:06:17;;;;;;;8.45;6.00;;;;;;;;;;5095677;28;20031;-59
2021/07/22 08:08:43;;;;;;;8.48;5.55;;;;;;;;;;5095350;28;20429;-59
2021/07/22 08:11:09;;;;;;;6.55;5.47;;;;;;;;;;5094886;28;20482;-59
2021/07/22 08:13:35;;;;;;;8.05;6.65;;;;;;;;;;5095079;28;20024;-59
2021/07/22 08:16:04;;;;;;;10.48;7.93;;;;;;;;;;5095392;28;20026;-59
2021/07/22 08:18:29;;;;;;;9.52;6.93;;;;;;;;;;5094936;28;20017;-59
2021/07/22 08:20:55;;;;;;;7.47;5.57;;;;;;;;;;5094900;28;20028;-59
2021/07/22 08:23:21;;;;;;;9.35;7.32;;;;;;;;;;5095245;28;20020;-59
2021/07/22 08:25:47;;;;;;;11.63;6.95;;;;;;;;;;5095363;28;20035;-59
2021/07/22 08:28:14;;;;;;;11.68;6.45;;;;;;;;;;5094911;28;20027;-59
2021/07/22 08:30:41;;;;;;;10.30;7.97;;;;;;;;;;5093831;28;20021;-59
2021/07/22 08:33:07;;;;;;;14.50;6.65;;;;;;;;;;5095343;28;20365;-59
2021/07/22 08:35:33;;;;;;;8.10;6.63;;;;;;;;;;5094689;28;20058;-59
2021/07/22 08:37:59;;;;;;;8.90;7.18;;;;;;;;;;5094655;28;20024;-59
2021/07/22 08:40:26;;;;;;;11.10;5.88;;;;;;;;;;5094688;28;20109;-59
2021/07/22 08:42:54;;;;;;;7.88;6.53;;;;;;;;;;5094792;28;20442;-59
2021/07/22 08:45:20;;;;;;;9.93;6.45;;;;;;;;;;5094452;28;20462;-59
2021/07/22 08:47:46;;;;;;;7.18;6.28;;;;;;;;;;5094504;28;20123;-59
2021/07/22 08:50:13;;;;;;;8.68;6.72;;;;;;;;;;5094660;28;20024;-59
2021/07/22 08:52:40;;;;;;;9.45;7.55;;;;;;;;;;5094999;28;20046;-59
2021/07/22 08:55:06;;;;;;;10.98;6.07;;;;;;;;;;5094621;28;20038;-59
2021/07/22 08:57:33;;;;;;;8.73;6.07;;;;;;;;;;5094355;28;20028;-59
2021/07/22 09:00:00;;;;;;;8.18;7.35;;;;;;;;;;5094314;28;20082;-59
2021/07/22 09:02:30;;;;;;;7.32;5.90;;;;;;;;;;5094899;28;20036;-59
2021/07/22 09:05:00;;;;;;;7.90;6.10;;;;;;;;;;5094642;28;20350;-59
2021/07/22 09:07:27;;;;;;;8.63;6.35;;;;;;;;;;5094125;28;20063;-59
2021/07/22 09:10:05;;;;;;;7.82;7.03;;;;;;;;;;5094109;28;20028;-59
2021/07/22 09:12:37;;;;;;;9.23;6.90;;;;;;;;;;5094745;28;20473;-59
2021/07/22 09:15:04;;;;;;;5.88;5.28;;;;;;;;;;5093928;28;20108;-59
2021/07/22 09:17:30;;;;;;;10.07;6.85;;;;;;;;;;5093452;28;20039;-59
2021/07/22 09:19:56;;;;;;;8.43;6.05;;;;;;;;;;5093955;28;20032;-59
2021/07/22 09:22:48;;;;;;;9.45;5.63;;;;;;;;;;5094507;28;20024;-59
2021/07/22 09:25:14;;;;;;;7.63;6.43;;;;;;;;;;5093454;28;20085;-59
2021/07/22 09:27:42;;;;;;;7.60;5.32;;;;;;;;;;5094093;28;20358;-59
2021/07/22 09:30:11;;;;;;;6.03;5.35;;;;;;;;;;5093838;28;20107;-60
2021/07/22 09:32:38;;;;;;;6.65;5.55;;;;;;;;;;5094301;28;20024;-59
2021/07/22 09:35:14;;;;;;;7.07;5.80;;;;;;;;;;5093798;28;20032;-59
2021/07/22 09:37:42;;;;;;;6.07;5.38;;;;;;;;;;5094188;28;20035;-59
2021/07/22 09:40:08;;;;;;;7.60;6.07;;;;;;;;;;5093506;28;20347;-59
2021/07/22 09:42:47;;;;;;;6.70;5.68;;;;;;;;;;5093401;28;20442;-59
2021/07/22 09:45:17;;;;;;;7.25;5.22;;;;;;;;;;5093547;28;20032;-59
2021/07/22 09:47:43;;;;;;;10.27;5.90;;;;;;;;;;5093614;28;20027;-59
2021/07/22 09:50:11;;;;;;;9.50;5.43;;;;;;;;;;5093322;28;20365;-59
2021/07/22 09:52:37;;;;;;;6.82;5.85;;;;;;;;;;5093726;28;20067;-59
2021/07/22 09:55:03;;;;;;;6.78;5.63;;;;;;;;;;5093818;28;20060;-59
2021/07/22 09:57:30;;;;;;;5.95;4.82;;;;;;;;;;5093886;28;20090;-59
2021/07/22 09:59:56;;;;;;;7.30;5.68;;;;;;;;;;5093392;28;20064;-59
2021/07/22 10:02:23;;;;;;;7.93;5.47;;;;;;;;;;5093664;28;20024;-59
2021/07/22 10:04:55;;;;;;;6.30;5.22;;;;;;;;;;5093121;28;20024;-59
2021/07/22 10:07:24;;;;;;;6.57;5.57;;;;;;;;;;5093353;28;20035;-59
2021/07/22 10:09:54;;;;;;;6.63;5.77;;;;;;;;;;5093387;28;20103;-59
2021/07/22 10:12:21;;;;;;;6.82;5.13;;;;;;;;;;5093262;28;20043;-60
2021/07/22 10:14:51;;;;;;;7.85;6.00;;;;;;;;;;5093136;28;20462;-60
2021/07/22 10:17:17;;;;;;;7.65;5.45;;;;;;;;;;5093728;28;20157;-60
2021/07/22 10:19:43;;;;;;;10.10;5.90;;;;;;;;;;5093222;28;20020;-59
2021/07/22 10:22:09;;;;;;;7.15;5.20;;;;;;;;;;5093048;28;20481;-60
2021/07/22 10:24:36;;;;;;;6.63;5.60;;;;;;;;;;5093139;28;20028;-59
2021/07/22 10:27:06;;;;;;;6.97;5.65;;;;;;;;;;5093116;28;20029;-59
2021/07/22 10:29:34;;;;;;;7.40;6.05;;;;;;;;;;5093154;28;20023;-59
2021/07/22 10:32:00;;;;;;;6.45;5.38;;;;;;;;;;5093606;28;20020;-59
2021/07/22 10:34:26;;;;;;;7.10;6.05;;;;;;;;;;5093246;28;20032;-59
2021/07/22 10:36:53;;;;;;;8.93;5.63;;;;;;;;;;5093675;28;20078;-59
2021/07/22 10:39:39;;;;;;;6.57;5.43;;;;;;;;;;5093040;28;20024;-59
2021/07/22 10:42:05;;;;;;;6.45;5.72;;;;;;;;;;5093270;28;20024;-59
2021/07/22 10:44:32;;;;;;;6.43;5.30;;;;;;;;;;5093024;28;20028;-59
2021/07/22 10:47:00;;;;;;;7.57;5.80;;;;;;;;;;5093041;28;20373;-59
2021/07/22 10:49:39;;;;;;;10.27;6.45;;;;;;;;;;5093396;28;20036;-59
2021/07/22 10:52:05;;;;;;;7.88;5.53;;;;;;;;;;5093613;28;20016;-59
2021/07/22 10:54:44;;;;;;;6.82;5.25;;;;;;;;;;5094769;28;20024;-60
2021/07/22 10:57:28;;;;;;;7.35;4.60;;;;;;;;;;5096618;28;20028;-60
2021/07/22 10:59:57;;;;;;;7.45;5.72;;;;;;;;;;5096486;28;20369;-60
2021/07/22 11:02:39;;;;;;;8.55;5.28;;;;;;;;;;5096586;28;20028;-60
2021/07/22 11:05:05;;;;;;;7.18;6.00;;;;;;;;;;5096961;28;20370;-60
2021/07/22 11:07:31;;;;;;;7.15;5.28;;;;;;;;;;5096734;28;20453;-60
2021/07/22 11:09:59;;;;;;;8.27;5.93;;;;;;;;;;5096967;28;20028;-60
2021/07/22 11:12:44;;;;;;;7.28;5.53;;;;;;;;;;5096013;28;20498;-60
2021/07/22 11:15:12;;;;;;;8.73;5.85;;;;;;;;;;5096743;28;20028;-60
2021/07/22 11:17:38;;;;;;;7.85;6.05;;;;;;;;;;5096284;28;20028;-60
2021/07/22 11:20:22;;;;;;;7.00;5.97;;;;;;;;;;5096386;28;20110;-60
2021/07/22 11:22:49;;;;;;;6.60;5.75;;;;;;;;;;5096579;28;20032;-60
2021/07/22 11:25:15;;;;;;;7.13;6.13;;;;;;;;;;5096237;28;20103;-60
2021/07/22 11:27:47;;;;;;;7.00;5.40;;;;;;;;;;5096239;28;20027;-60
2021/07/22 11:30:13;;;;;;;8.13;6.38;;;;;;;;;;5096111;28;20028;-60
2021/07/22 11:32:39;;;;;;;6.65;5.80;;;;;;;;;;5096083;28;20103;-60
2021/07/22 11:35:05;;;;;;;6.65;5.68;;;;;;;;;;5094646;28;20537;-60
2021/07/22 11:37:32;;;;;;;7.13;5.85;;;;;;;;;;5095991;28;20029;-60
2021/07/22 11:39:58;;;;;;;7.25;5.65;;;;;;;;;;5096309;28;20024;-60
2021/07/22 11:42:24;;;;;;;5.97;5.38;;;;;;;;;;5095874;28;20031;-60
2021/07/22 11:45:03;;;;;;;9.35;6.35;;;;;;;;;;5096563;28;20038;-60
2021/07/22 11:47:32;;;;;;;6.93;6.05;;;;;;;;;;5095701;28;20021;-60
2021/07/22 11:49:59;;;;;;;8.43;6.05;;;;;;;;;;5094490;28;20024;-60
2021/07/22 11:52:26;;;;;;;9.27;7.20;;;;;;;;;;5096379;28;20031;-60
2021/07/22 11:55:11;;;;;;;9.38;6.10;;;;;;;;;;5095586;28;20503;-60
2021/07/22 11:57:37;;;;;;;7.20;6.50;;;;;;;;;;5095661;28;20054;-60
2021/07/22 12:00:16;;;;;;;7.40;5.90;;;;;;;;;;5096012;28;20020;-60
2021/07/22 12:02:47;;;;;;;8.48;7.32;;;;;;;;;;5096021;28;20427;-60
2021/07/22 12:05:13;;;;;;;9.45;6.95;;;;;;;;;;5095473;28;20028;-60
2021/07/22 12:07:39;;;;;;;6.75;6.05;;;;;;;;;;5095657;28;20461;-60
2021/07/22 12:10:06;;;;;;;9.15;5.88;;;;;;;;;;5095703;28;20103;-60
2021/07/22 12:12:32;;;;;;;9.73;6.15;;;;;;;;;;5095753;28;20386;-60
2021/07/22 12:15:05;;;;;;;7.97;6.35;;;;;;;;;;5095095;28;20044;-60
2021/07/22 12:17:31;;;;;;;6.93;5.57;;;;;;;;;;5095061;28;20077;-60
2021/07/22 12:19:57;;;;;;;7.60;6.72;;;;;;;;;;5094972;28;20054;-60
2021/07/22 12:22:23;;;;;;;8.88;6.32;;;;;;;;;;5095117;28;20056;-60
2021/07/22 12:24:50;;;;;;;6.22;5.63;;;;;;;;;;5095203;28;20119;-60
2021/07/22 12:27:27;;;;;;;14.50;6.57;;;;;;;;;;5095503;28;20099;-60
2021/07/22 12:29:53;;;;;;;7.43;6.30;;;;;;;;;;5095227;28;20099;-60
2021/07/22 12:32:19;;;;;;;6.72;6.00;;;;;;;;;;5095152;28;20063;-60
2021/07/22 12:34:45;;;;;;;10.13;6.13;;;;;;;;;;5094793;28;20024;-60
2021/07/22 12:37:11;;;;;;;8.35;6.32;;;;;;;;;;5095055;28;20069;-60
2021/07/22 12:39:37;;;;;;;7.15;6.20;;;;;;;;;;5094759;28;20112;-60
2021/07/22 12:42:14;;;;;;;9.43;6.88;;;;;;;;;;5094999;28;20024;-60
2021/07/22 12:44:44;;;;;;;8.05;6.30;;;;;;;;;;5094661;28;20062;-60
2021/07/22 12:47:29;;;;;;;7.78;6.05;;;;;;;;;;5094231;28;20069;-60
2021/07/22 12:49:55;;;;;;;8.18;6.30;;;;;;;;;;5095058;28;20024;-59
2021/07/22 12:52:22;;;;;;;8.85;6.43;;;;;;;;;;5094996;28;20024;-59
2021/07/22 12:54:48;;;;;;;6.40;5.80;;;;;;;;;;5094594;28;20064;-59
2021/07/22 12:57:14;;;;;;;9.00;7.15;;;;;;;;;;5094498;28;20036;-59
2021/07/22 12:59:39;;;;;;;9.27;6.93;;;;;;;;;;5094546;28;20389;-59
2021/07/22 13:02:05;;;;;;;6.13;5.60;;;;;;;;;;5094968;28;20065;-59
2021/07/22 13:04:31;;;;;;;7.65;6.32;;;;;;;;;;5094575;28;20047;-59
2021/07/22 13:06:57;;;;;;;8.82;6.68;;;;;;;;;;5094790;28;20136;-60
2021/07/22 13:09:24;;;;;;;7.40;5.47;;;;;;;;;;5094168;28;20108;-59
2021/07/22 13:11:56;;;;;;;8.88;7.65;;;;;;;;;;5093974;28;20048;-59
2021/07/22 13:14:23;;;;;;;7.55;6.65;;;;;;;;;;5094078;28;20032;-59
2021/07/22 13:16:49;;;;;;;8.95;6.53;;;;;;;;;;5094118;28;20035;-59
2021/07/22 13:19:16;;;;;;;7.40;6.63;;;;;;;;;;5093821;28;20012;-59
2021/07/22 13:21:43;;;;;;;9.35;6.30;;;;;;;;;;5094011;28;20035;-59
2021/07/22 13:24:09;;;;;;;8.98;7.15;;;;;;;;;;5094029;28;20039;-59
2021/07/22 13:26:35;;;;;;;7.20;6.50;;;;;;;;;;5093946;28;20024;-59
2021/07/22 13:29:01;;;;;;;8.13;6.20;;;;;;;;;;5093932;28;20024;-59
2021/07/22 13:31:27;;;;;;;6.97;5.15;;;;;;;;;;5094119;28;20102;-59
2021/07/22 13:33:53;;;;;;;7.40;5.97;;;;;;;;;;5093625;28;20024;-59
2021/07/22 13:36:19;;;;;;;10.05;6.85;;;;;;;;;;5093596;28;20145;-59
2021/07/22 13:38:45;;;;;;;9.73;6.72;;;;;;;;;;5094191;28;20122;-59
2021/07/22 13:41:12;;;;;;;7.60;6.53;;;;;;;;;;5093903;28;20062;-59
2021/07/22 13:43:38;;;;;;;8.02;6.18;;;;;;;;;;5093542;28;20032;-59
2021/07/22 13:46:04;;;;;;;8.70;6.50;;;;;;;;;;5093524;28;20355;-59
2021/07/22 13:48:30;;;;;;;7.60;5.47;;;;;;;;;;5093525;28;20035;-59
2021/07/22 13:51:01;;;;;;;7.47;6.28;;;;;;;;;;5093252;28;20469;-59
2021/07/22 13:53:32;;;;;;;7.93;5.88;;;;;;;;;;5094287;28;20026;-59
2021/07/22 13:55:58;;;;;;;7.82;6.05;;;;;;;;;;5094019;28;20031;-59
2021/07/22 13:58:24;;;;;;;9.40;6.43;;;;;;;;;;5093806;28;20461;-59
2021/07/22 14:00:50;;;;;;;7.90;6.63;;;;;;;;;;5093469;28;20099;-59
2021/07/22 14:03:16;;;;;;;7.25;5.55;;;;;;;;;;5093902;28;20027;-59
2021/07/22 14:05:43;;;;;;;10.15;6.53;;;;;;;;;;5094042;28;20064;-59
2021/07/22 14:08:09;;;;;;;6.63;5.85;;;;;;;;;;5093647;28;20016;-59
2021/07/22 14:10:35;;;;;;;6.38;5.47;;;;;;;;;;5093240;28;20027;-60
2021/07/22 14:13:01;;;;;;;7.45;5.80;;;;;;;;;;5093704;28;20021;-60
2021/07/22 14:15:27;;;;;;;7.22;5.70;;;;;;;;;;5093415;28;20055;-60
2021/07/22 14:17:53;;;;;;;8.50;6.25;;;;;;;;;;5093403;28;20025;-60
2021/07/22 14:20:20;;;;;;;8.45;6.13;;;;;;;;;;5093664;28;20020;-60
2021/07/22 14:22:46;;;;;;;8.15;5.72;;;;;;;;;;5093978;28;20080;-60
2021/07/22 14:25:12;;;;;;;6.80;5.57;;;;;;;;;;5093347;28;20028;-60
2021/07/22 14:27:38;;;;;;;7.65;5.60;;;;;;;;;;5093315;28;20028;-60
2021/07/22 14:30:08;;;;;;;10.95;6.60;;;;;;;;;;5096244;28;20043;-60
2021/07/22 14:32:34;;;;;;;;;;;;;;;;;;5098507;28;20047;-60
2021/07/22 14:35:00;;;;;;;7.40;5.78;;;;;;;;;;5097217;28;20091;-60
2021/07/22 14:37:26;;;;;;;8.45;5.80;;;;;;;;;;5097132;28;20020;-60
2021/07/22 14:39:52;;;;;;;6.68;5.15;;;;;;;;;;5097200;28;20028;-60